sensor_id;sensor_type;location;lat;lon;timestamp;P1;durP1;ratioP1;P2;durP2;ratioP2
18042;SDS011;9146;48.074;11.968;2023-12-20T00:00:04;1.83;;;1.70;;
18042;SDS011;9146;48.074;11.968;2023-12-20T00:02:31;3.83;;;2.70;;
18042;SDS011;9146;48.074;11.968;2023-12-20T00:04:58;2.03;;;1.93;;
18042;SDS011;9146;48.074;11.968;2023-12-20T00:07:25;2.27;;;2.07;;
18042;SDS011;9146;48.074;11.968;2023-12-20T00:09:53;3.00;;;2.57;;
18042;SDS011;9146;48.074;11.968;2023-12-20T00:12:21;2.50;;;2.30;;
18042;SDS011;9146;48.074;11.968;2023-12-20T00:14:49;3.27;;;2.63;;
18042;SDS011;9146;48.074;11.968;2023-12-20T00:17:16;2.30;;;2.10;;
18042;SDS011;9146;48.074;11.968;2023-12-20T00:19:43;2.57;;;1.90;;
18042;SDS011;9146;48.074;11.968;2023-12-20T00:22:11;2.83;;;1.73;;
18042;SDS011;9146;48.074;11.968;2023-12-20T00:24:38;2.03;;;1.93;;
18042;SDS011;9146;48.074;11.968;2023-12-20T00:27:05;2.77;;;2.03;;
18042;SDS011;9146;48.074;11.968;2023-12-20T00:29:32;5.30;;;1.93;;
18042;SDS011;9146;48.074;11.968;2023-12-20T00:32:01;2.10;;;2.00;;
18042;SDS011;9146;48.074;11.968;2023-12-20T00:34:28;3.17;;;1.50;;
18042;SDS011;9146;48.074;11.968;2023-12-20T00:36:55;2.20;;;1.70;;
18042;SDS011;9146;48.074;11.968;2023-12-20T00:39:22;1.70;;;1.60;;
18042;SDS011;9146;48.074;11.968;2023-12-20T00:41:49;1.53;;;1.43;;
18042;SDS011;9146;48.074;11.968;2023-12-20T00:44:16;2.17;;;2.00;;
18042;SDS011;9146;48.074;11.968;2023-12-20T00:46:44;1.90;;;1.80;;
18042;SDS011;9146;48.074;11.968;2023-12-20T00:49:12;1.70;;;1.60;;
18042;SDS011;9146;48.074;11.968;2023-12-20T00:51:39;1.63;;;1.53;;
18042;SDS011;9146;48.074;11.968;2023-12-20T00:54:05;1.97;;;1.77;;
18042;SDS011;9146;48.074;11.968;2023-12-20T00:56:32;2.20;;;2.00;;
18042;SDS011;9146;48.074;11.968;2023-12-20T00:58:59;2.50;;;2.30;;
18042;SDS011;9146;48.074;11.968;2023-12-20T01:01:26;1.50;;;1.40;;
18042;SDS011;9146;48.074;11.968;2023-12-20T01:03:53;1.80;;;1.70;;
18042;SDS011;9146;48.074;11.968;2023-12-20T01:06:22;1.90;;;1.80;;
18042;SDS011;9146;48.074;11.968;2023-12-20T01:08:48;2.30;;;1.90;;
18042;SDS011;9146;48.074;11.968;2023-12-20T01:11:15;2.17;;;1.97;;
18042;SDS011;9146;48.074;11.968;2023-12-20T01:13:42;1.30;;;1.27;;
18042;SDS011;9146;48.074;11.968;2023-12-20T01:16:09;1.57;;;1.47;;
18042;SDS011;9146;48.074;11.968;2023-12-20T01:18:37;1.87;;;1.67;;
18042;SDS011;9146;48.074;11.968;2023-12-20T01:21:04;2.50;;;2.00;;
18042;SDS011;9146;48.074;11.968;2023-12-20T01:23:33;1.90;;;1.80;;
18042;SDS011;9146;48.074;11.968;2023-12-20T01:25:59;1.70;;;1.60;;
18042;SDS011;9146;48.074;11.968;2023-12-20T01:28:27;2.77;;;2.27;;
18042;SDS011;9146;48.074;11.968;2023-12-20T01:30:54;1.97;;;1.87;;
18042;SDS011;9146;48.074;11.968;2023-12-20T01:33:21;2.67;;;2.47;;
18042;SDS011;9146;48.074;11.968;2023-12-20T01:35:49;1.60;;;1.60;;
18042;SDS011;9146;48.074;11.968;2023-12-20T01:38:16;2.77;;;1.93;;
18042;SDS011;9146;48.074;11.968;2023-12-20T01:40:46;3.43;;;2.17;;
18042;SDS011;9146;48.074;11.968;2023-12-20T01:43:13;3.00;;;2.60;;
18042;SDS011;9146;48.074;11.968;2023-12-20T01:45:40;2.67;;;2.27;;
18042;SDS011;9146;48.074;11.968;2023-12-20T01:48:08;2.70;;;2.50;;
18042;SDS011;9146;48.074;11.968;2023-12-20T01:50:36;1.87;;;1.77;;
18042;SDS011;9146;48.074;11.968;2023-12-20T01:53:03;2.33;;;2.00;;
18042;SDS011;9146;48.074;11.968;2023-12-20T01:55:32;2.60;;;2.40;;
18042;SDS011;9146;48.074;11.968;2023-12-20T01:58:02;2.10;;;1.90;;
18042;SDS011;9146;48.074;11.968;2023-12-20T02:00:30;1.77;;;1.67;;
18042;SDS011;9146;48.074;11.968;2023-12-20T02:02:57;2.27;;;2.07;;
18042;SDS011;9146;48.074;11.968;2023-12-20T02:05:28;2.60;;;2.23;;
18042;SDS011;9146;48.074;11.968;2023-12-20T02:07:56;3.93;;;2.33;;
18042;SDS011;9146;48.074;11.968;2023-12-20T02:10:23;3.23;;;2.03;;
18042;SDS011;9146;48.074;11.968;2023-12-20T02:12:50;2.50;;;2.37;;
18042;SDS011;9146;48.074;11.968;2023-12-20T02:15:19;4.13;;;2.20;;
18042;SDS011;9146;48.074;11.968;2023-12-20T02:17:46;3.43;;;2.50;;
18042;SDS011;9146;48.074;11.968;2023-12-20T02:20:14;2.63;;;2.43;;
18042;SDS011;9146;48.074;11.968;2023-12-20T02:22:42;2.10;;;1.90;;
18042;SDS011;9146;48.074;11.968;2023-12-20T02:25:09;2.00;;;1.90;;
18042;SDS011;9146;48.074;11.968;2023-12-20T02:27:36;1.53;;;1.43;;
18042;SDS011;9146;48.074;11.968;2023-12-20T02:30:03;2.50;;;2.13;;
18042;SDS011;9146;48.074;11.968;2023-12-20T02:32:31;2.23;;;2.07;;
18042;SDS011;9146;48.074;11.968;2023-12-20T02:34:58;2.00;;;1.87;;
18042;SDS011;9146;48.074;11.968;2023-12-20T02:37:25;1.73;;;1.60;;
18042;SDS011;9146;48.074;11.968;2023-12-20T02:39:53;2.00;;;1.90;;
18042;SDS011;9146;48.074;11.968;2023-12-20T02:42:20;1.87;;;1.67;;
18042;SDS011;9146;48.074;11.968;2023-12-20T02:44:47;1.70;;;1.60;;
18042;SDS011;9146;48.074;11.968;2023-12-20T02:47:14;1.80;;;1.70;;
18042;SDS011;9146;48.074;11.968;2023-12-20T02:49:40;5.40;;;1.83;;
18042;SDS011;9146;48.074;11.968;2023-12-20T02:52:07;1.77;;;1.67;;
18042;SDS011;9146;48.074;11.968;2023-12-20T02:54:34;2.20;;;2.10;;
18042;SDS011;9146;48.074;11.968;2023-12-20T02:57:03;1.73;;;1.63;;
18042;SDS011;9146;48.074;11.968;2023-12-20T02:59:30;1.83;;;1.73;;
18042;SDS011;9146;48.074;11.968;2023-12-20T03:01:57;1.83;;;1.70;;
18042;SDS011;9146;48.074;11.968;2023-12-20T03:04:24;1.90;;;1.80;;
18042;SDS011;9146;48.074;11.968;2023-12-20T03:06:51;1.60;;;1.50;;
18042;SDS011;9146;48.074;11.968;2023-12-20T03:09:17;1.93;;;1.83;;
18042;SDS011;9146;48.074;11.968;2023-12-20T03:11:44;2.00;;;1.80;;
18042;SDS011;9146;48.074;11.968;2023-12-20T03:14:13;1.83;;;1.73;;
18042;SDS011;9146;48.074;11.968;2023-12-20T03:16:39;2.07;;;1.97;;
18042;SDS011;9146;48.074;11.968;2023-12-20T03:19:06;1.90;;;1.80;;
18042;SDS011;9146;48.074;11.968;2023-12-20T03:21:33;2.57;;;2.10;;
18042;SDS011;9146;48.074;11.968;2023-12-20T03:24:00;1.80;;;1.70;;
18042;SDS011;9146;48.074;11.968;2023-12-20T03:26:27;1.93;;;1.83;;
18042;SDS011;9146;48.074;11.968;2023-12-20T03:28:54;2.23;;;2.13;;
18042;SDS011;9146;48.074;11.968;2023-12-20T03:31:23;2.37;;;2.17;;
18042;SDS011;9146;48.074;11.968;2023-12-20T03:33:50;2.53;;;2.30;;
18042;SDS011;9146;48.074;11.968;2023-12-20T03:36:18;2.70;;;2.40;;
18042;SDS011;9146;48.074;11.968;2023-12-20T03:38:45;2.10;;;2.00;;
18042;SDS011;9146;48.074;11.968;2023-12-20T03:41:14;2.33;;;2.13;;
18042;SDS011;9146;48.074;11.968;2023-12-20T03:43:41;1.97;;;1.87;;
18042;SDS011;9146;48.074;11.968;2023-12-20T03:46:09;2.83;;;2.27;;
18042;SDS011;9146;48.074;11.968;2023-12-20T03:48:38;2.27;;;2.00;;
18042;SDS011;9146;48.074;11.968;2023-12-20T03:51:05;2.00;;;1.90;;
18042;SDS011;9146;48.074;11.968;2023-12-20T03:53:31;2.20;;;2.00;;
18042;SDS011;9146;48.074;11.968;2023-12-20T03:55:58;2.00;;;1.90;;
18042;SDS011;9146;48.074;11.968;2023-12-20T03:58:25;1.60;;;1.50;;
18042;SDS011;9146;48.074;11.968;2023-12-20T04:00:52;1.83;;;1.73;;
18042;SDS011;9146;48.074;11.968;2023-12-20T04:03:19;2.00;;;1.90;;
18042;SDS011;9146;48.074;11.968;2023-12-20T04:05:47;1.80;;;1.70;;
18042;SDS011;9146;48.074;11.968;2023-12-20T04:08:14;1.90;;;1.80;;
18042;SDS011;9146;48.074;11.968;2023-12-20T04:10:41;2.47;;;2.27;;
18042;SDS011;9146;48.074;11.968;2023-12-20T04:13:08;3.17;;;1.60;;
18042;SDS011;9146;48.074;11.968;2023-12-20T04:15:35;1.67;;;1.53;;
18042;SDS011;9146;48.074;11.968;2023-12-20T04:18:02;2.10;;;1.60;;
18042;SDS011;9146;48.074;11.968;2023-12-20T04:20:29;1.70;;;1.60;;
18042;SDS011;9146;48.074;11.968;2023-12-20T04:22:57;1.90;;;1.80;;
18042;SDS011;9146;48.074;11.968;2023-12-20T04:25:24;1.37;;;1.27;;
18042;SDS011;9146;48.074;11.968;2023-12-20T04:27:51;1.83;;;1.50;;
18042;SDS011;9146;48.074;11.968;2023-12-20T04:30:18;1.70;;;1.60;;
18042;SDS011;9146;48.074;11.968;2023-12-20T04:32:45;1.63;;;1.53;;
18042;SDS011;9146;48.074;11.968;2023-12-20T04:35:12;1.80;;;1.70;;
18042;SDS011;9146;48.074;11.968;2023-12-20T04:37:39;1.50;;;1.40;;
18042;SDS011;9146;48.074;11.968;2023-12-20T04:40:08;1.60;;;1.50;;
18042;SDS011;9146;48.074;11.968;2023-12-20T04:42:36;1.57;;;1.47;;
18042;SDS011;9146;48.074;11.968;2023-12-20T04:45:04;2.20;;;1.93;;
18042;SDS011;9146;48.074;11.968;2023-12-20T04:47:31;1.53;;;1.43;;
18042;SDS011;9146;48.074;11.968;2023-12-20T04:49:58;1.87;;;1.77;;
18042;SDS011;9146;48.074;11.968;2023-12-20T04:52:25;1.50;;;1.40;;
18042;SDS011;9146;48.074;11.968;2023-12-20T04:54:52;1.40;;;1.30;;
18042;SDS011;9146;48.074;11.968;2023-12-20T04:57:20;1.50;;;1.40;;
18042;SDS011;9146;48.074;11.968;2023-12-20T04:59:47;1.40;;;1.30;;
18042;SDS011;9146;48.074;11.968;2023-12-20T05:02:14;1.30;;;1.20;;
18042;SDS011;9146;48.074;11.968;2023-12-20T05:04:41;1.00;;;1.00;;
18042;SDS011;9146;48.074;11.968;2023-12-20T05:07:08;1.37;;;1.30;;
18042;SDS011;9146;48.074;11.968;2023-12-20T05:09:35;1.30;;;1.20;;
18042;SDS011;9146;48.074;11.968;2023-12-20T05:12:02;3.33;;;1.20;;
18042;SDS011;9146;48.074;11.968;2023-12-20T05:14:30;1.00;;;1.00;;
18042;SDS011;9146;48.074;11.968;2023-12-20T05:16:58;0.90;;;0.90;;
18042;SDS011;9146;48.074;11.968;2023-12-20T05:19:25;1.13;;;1.10;;
18042;SDS011;9146;48.074;11.968;2023-12-20T05:21:52;1.30;;;1.20;;
18042;SDS011;9146;48.074;11.968;2023-12-20T05:24:18;1.37;;;1.20;;
18042;SDS011;9146;48.074;11.968;2023-12-20T05:26:45;2.63;;;1.60;;
18042;SDS011;9146;48.074;11.968;2023-12-20T05:29:12;1.10;;;1.10;;
18042;SDS011;9146;48.074;11.968;2023-12-20T05:31:40;2.10;;;1.17;;
18042;SDS011;9146;48.074;11.968;2023-12-20T05:34:07;1.20;;;1.20;;
18042;SDS011;9146;48.074;11.968;2023-12-20T05:36:34;3.93;;;1.67;;
18042;SDS011;9146;48.074;11.968;2023-12-20T05:39:01;2.73;;;2.20;;
18042;SDS011;9146;48.074;11.968;2023-12-20T05:41:29;1.30;;;1.30;;
18042;SDS011;9146;48.074;11.968;2023-12-20T05:43:56;1.80;;;1.70;;
18042;SDS011;9146;48.074;11.968;2023-12-20T05:46:24;3.53;;;3.23;;
18042;SDS011;9146;48.074;11.968;2023-12-20T05:48:54;3.77;;;1.93;;
18042;SDS011;9146;48.074;11.968;2023-12-20T05:51:20;1.90;;;1.80;;
18042;SDS011;9146;48.074;11.968;2023-12-20T05:53:47;1.40;;;1.30;;
18042;SDS011;9146;48.074;11.968;2023-12-20T05:56:15;1.70;;;1.60;;
18042;SDS011;9146;48.074;11.968;2023-12-20T05:58:41;5.13;;;1.60;;
18042;SDS011;9146;48.074;11.968;2023-12-20T06:01:08;1.70;;;1.60;;
18042;SDS011;9146;48.074;11.968;2023-12-20T06:03:35;1.57;;;1.50;;
18042;SDS011;9146;48.074;11.968;2023-12-20T06:06:06;2.07;;;1.97;;
18042;SDS011;9146;48.074;11.968;2023-12-20T06:08:33;1.73;;;1.63;;
18042;SDS011;9146;48.074;11.968;2023-12-20T06:11:00;1.73;;;1.63;;
18042;SDS011;9146;48.074;11.968;2023-12-20T06:13:27;2.50;;;2.30;;
18042;SDS011;9146;48.074;11.968;2023-12-20T06:15:54;2.03;;;1.80;;
18042;SDS011;9146;48.074;11.968;2023-12-20T06:18:21;1.83;;;1.73;;
18042;SDS011;9146;48.074;11.968;2023-12-20T06:20:49;1.80;;;1.70;;
18042;SDS011;9146;48.074;11.968;2023-12-20T06:23:17;2.37;;;2.20;;
18042;SDS011;9146;48.074;11.968;2023-12-20T06:25:44;3.23;;;1.80;;
18042;SDS011;9146;48.074;11.968;2023-12-20T06:28:11;2.10;;;2.00;;
18042;SDS011;9146;48.074;11.968;2023-12-20T06:30:39;1.93;;;1.80;;
18042;SDS011;9146;48.074;11.968;2023-12-20T06:33:06;1.90;;;1.70;;
18042;SDS011;9146;48.074;11.968;2023-12-20T06:35:35;2.30;;;1.80;;
18042;SDS011;9146;48.074;11.968;2023-12-20T06:38:02;7.23;;;2.00;;
18042;SDS011;9146;48.074;11.968;2023-12-20T06:40:30;1.73;;;1.60;;
18042;SDS011;9146;48.074;11.968;2023-12-20T06:42:57;2.40;;;2.10;;
18042;SDS011;9146;48.074;11.968;2023-12-20T06:45:25;1.90;;;1.80;;
18042;SDS011;9146;48.074;11.968;2023-12-20T06:47:52;2.13;;;1.93;;
18042;SDS011;9146;48.074;11.968;2023-12-20T06:50:19;1.87;;;1.77;;
18042;SDS011;9146;48.074;11.968;2023-12-20T06:52:46;1.60;;;1.50;;
18042;SDS011;9146;48.074;11.968;2023-12-20T06:55:13;1.70;;;1.60;;
18042;SDS011;9146;48.074;11.968;2023-12-20T06:57:41;3.27;;;2.27;;
18042;SDS011;9146;48.074;11.968;2023-12-20T07:00:10;3.93;;;2.43;;
18042;SDS011;9146;48.074;11.968;2023-12-20T07:02:38;2.17;;;1.97;;
18042;SDS011;9146;48.074;11.968;2023-12-20T07:05:06;2.10;;;2.00;;
18042;SDS011;9146;48.074;11.968;2023-12-20T07:07:33;1.80;;;1.70;;
18042;SDS011;9146;48.074;11.968;2023-12-20T07:10:00;2.00;;;1.90;;
18042;SDS011;9146;48.074;11.968;2023-12-20T07:12:27;2.50;;;1.80;;
18042;SDS011;9146;48.074;11.968;2023-12-20T07:14:55;1.90;;;1.80;;
18042;SDS011;9146;48.074;11.968;2023-12-20T07:17:22;2.00;;;1.63;;
18042;SDS011;9146;48.074;11.968;2023-12-20T07:19:49;1.50;;;1.40;;
18042;SDS011;9146;48.074;11.968;2023-12-20T07:22:16;1.50;;;1.40;;
18042;SDS011;9146;48.074;11.968;2023-12-20T07:24:43;1.70;;;1.60;;
18042;SDS011;9146;48.074;11.968;2023-12-20T07:27:11;1.53;;;1.43;;
18042;SDS011;9146;48.074;11.968;2023-12-20T07:29:37;1.90;;;1.53;;
18042;SDS011;9146;48.074;11.968;2023-12-20T07:32:06;2.03;;;1.90;;
18042;SDS011;9146;48.074;11.968;2023-12-20T07:34:34;2.77;;;1.53;;
18042;SDS011;9146;48.074;11.968;2023-12-20T07:37:02;1.70;;;1.60;;
18042;SDS011;9146;48.074;11.968;2023-12-20T07:39:29;1.20;;;1.20;;
18042;SDS011;9146;48.074;11.968;2023-12-20T07:41:56;1.37;;;1.37;;
18042;SDS011;9146;48.074;11.968;2023-12-20T07:44:24;1.40;;;1.40;;
18042;SDS011;9146;48.074;11.968;2023-12-20T07:46:50;2.60;;;1.27;;
18042;SDS011;9146;48.074;11.968;2023-12-20T07:49:20;1.40;;;1.30;;
18042;SDS011;9146;48.074;11.968;2023-12-20T07:51:46;1.30;;;1.20;;
18042;SDS011;9146;48.074;11.968;2023-12-20T07:54:13;2.40;;;1.37;;
18042;SDS011;9146;48.074;11.968;2023-12-20T07:56:40;1.30;;;1.20;;
18042;SDS011;9146;48.074;11.968;2023-12-20T07:59:07;1.20;;;1.20;;
18042;SDS011;9146;48.074;11.968;2023-12-20T08:01:37;1.60;;;1.10;;
18042;SDS011;9146;48.074;11.968;2023-12-20T08:04:04;1.70;;;1.20;;
18042;SDS011;9146;48.074;11.968;2023-12-20T08:06:33;1.37;;;1.27;;
18042;SDS011;9146;48.074;11.968;2023-12-20T08:09:00;2.03;;;1.80;;
18042;SDS011;9146;48.074;11.968;2023-12-20T08:11:27;2.40;;;1.40;;
18042;SDS011;9146;48.074;11.968;2023-12-20T08:13:54;1.70;;;1.60;;
18042;SDS011;9146;48.074;11.968;2023-12-20T08:16:21;2.10;;;1.63;;
18042;SDS011;9146;48.074;11.968;2023-12-20T08:18:49;1.70;;;1.60;;
18042;SDS011;9146;48.074;11.968;2023-12-20T08:21:16;1.50;;;1.40;;
18042;SDS011;9146;48.074;11.968;2023-12-20T08:23:46;1.90;;;1.80;;
18042;SDS011;9146;48.074;11.968;2023-12-20T08:26:14;2.40;;;1.73;;
18042;SDS011;9146;48.074;11.968;2023-12-20T08:28:46;1.83;;;1.73;;
18042;SDS011;9146;48.074;11.968;2023-12-20T08:31:13;1.63;;;1.57;;
18042;SDS011;9146;48.074;11.968;2023-12-20T08:33:41;3.43;;;1.83;;
18042;SDS011;9146;48.074;11.968;2023-12-20T08:36:08;2.43;;;2.00;;
18042;SDS011;9146;48.074;11.968;2023-12-20T08:38:35;1.90;;;1.80;;
18042;SDS011;9146;48.074;11.968;2023-12-20T08:41:04;3.23;;;1.67;;
18042;SDS011;9146;48.074;11.968;2023-12-20T08:43:31;2.87;;;2.00;;
18042;SDS011;9146;48.074;11.968;2023-12-20T08:46:00;1.77;;;1.67;;
18042;SDS011;9146;48.074;11.968;2023-12-20T08:48:26;1.90;;;1.80;;
18042;SDS011;9146;48.074;11.968;2023-12-20T08:50:54;1.90;;;1.80;;
18042;SDS011;9146;48.074;11.968;2023-12-20T08:53:20;2.13;;;1.97;;
18042;SDS011;9146;48.074;11.968;2023-12-20T08:55:47;8.60;;;1.77;;
18042;SDS011;9146;48.074;11.968;2023-12-20T08:58:16;1.73;;;1.63;;
18042;SDS011;9146;48.074;11.968;2023-12-20T09:00:43;2.10;;;1.80;;
18042;SDS011;9146;48.074;11.968;2023-12-20T09:03:11;1.77;;;1.40;;
18042;SDS011;9146;48.074;11.968;2023-12-20T09:05:38;1.60;;;1.50;;
18042;SDS011;9146;48.074;11.968;2023-12-20T09:08:05;4.60;;;2.00;;
18042;SDS011;9146;48.074;11.968;2023-12-20T09:10:32;1.60;;;1.50;;
18042;SDS011;9146;48.074;11.968;2023-12-20T09:12:59;1.63;;;1.50;;
18042;SDS011;9146;48.074;11.968;2023-12-20T09:15:28;2.73;;;1.87;;
18042;SDS011;9146;48.074;11.968;2023-12-20T09:17:56;1.40;;;1.27;;
18042;SDS011;9146;48.074;11.968;2023-12-20T09:20:23;1.63;;;1.37;;
18042;SDS011;9146;48.074;11.968;2023-12-20T09:22:50;3.33;;;1.80;;
18042;SDS011;9146;48.074;11.968;2023-12-20T09:25:17;1.37;;;1.37;;
18042;SDS011;9146;48.074;11.968;2023-12-20T09:27:44;1.63;;;1.53;;
18042;SDS011;9146;48.074;11.968;2023-12-20T09:30:11;1.40;;;1.30;;
18042;SDS011;9146;48.074;11.968;2023-12-20T09:32:39;4.50;;;1.73;;
18042;SDS011;9146;48.074;11.968;2023-12-20T09:35:07;1.63;;;1.53;;
18042;SDS011;9146;48.074;11.968;2023-12-20T09:37:34;3.20;;;1.83;;
18042;SDS011;9146;48.074;11.968;2023-12-20T09:40:01;2.57;;;1.60;;
18042;SDS011;9146;48.074;11.968;2023-12-20T09:42:29;1.50;;;1.40;;
18042;SDS011;9146;48.074;11.968;2023-12-20T09:45:03;1.50;;;1.40;;
18042;SDS011;9146;48.074;11.968;2023-12-20T09:47:34;1.50;;;1.33;;
18042;SDS011;9146;48.074;11.968;2023-12-20T09:50:03;1.20;;;1.10;;
18042;SDS011;9146;48.074;11.968;2023-12-20T09:52:31;3.83;;;2.00;;
18042;SDS011;9146;48.074;11.968;2023-12-20T09:55:00;1.43;;;1.37;;
18042;SDS011;9146;48.074;11.968;2023-12-20T09:57:30;2.07;;;1.93;;
18042;SDS011;9146;48.074;11.968;2023-12-20T09:59:57;1.90;;;1.80;;
18042;SDS011;9146;48.074;11.968;2023-12-20T10:02:25;3.77;;;2.20;;
18042;SDS011;9146;48.074;11.968;2023-12-20T10:04:52;1.70;;;1.60;;
18042;SDS011;9146;48.074;11.968;2023-12-20T10:07:21;1.87;;;1.73;;
18042;SDS011;9146;48.074;11.968;2023-12-20T10:09:48;1.70;;;1.60;;
18042;SDS011;9146;48.074;11.968;2023-12-20T10:12:20;1.70;;;1.60;;
18042;SDS011;9146;48.074;11.968;2023-12-20T10:14:47;1.90;;;1.77;;
18042;SDS011;9146;48.074;11.968;2023-12-20T10:17:14;1.83;;;1.73;;
18042;SDS011;9146;48.074;11.968;2023-12-20T10:19:42;1.30;;;1.30;;
18042;SDS011;9146;48.074;11.968;2023-12-20T10:22:09;1.60;;;1.50;;
18042;SDS011;9146;48.074;11.968;2023-12-20T10:24:38;1.47;;;1.37;;
18042;SDS011;9146;48.074;11.968;2023-12-20T10:27:07;1.43;;;1.33;;
18042;SDS011;9146;48.074;11.968;2023-12-20T10:29:35;1.40;;;1.40;;
18042;SDS011;9146;48.074;11.968;2023-12-20T10:32:22;1.43;;;1.33;;
18042;SDS011;9146;48.074;11.968;2023-12-20T10:34:50;3.53;;;2.17;;
18042;SDS011;9146;48.074;11.968;2023-12-20T10:37:16;6.47;;;1.57;;
18042;SDS011;9146;48.074;11.968;2023-12-20T10:39:45;1.47;;;1.40;;
18042;SDS011;9146;48.074;11.968;2023-12-20T10:42:16;2.40;;;1.50;;
18042;SDS011;9146;48.074;11.968;2023-12-20T10:44:44;2.00;;;1.70;;
18042;SDS011;9146;48.074;11.968;2023-12-20T10:47:13;1.80;;;1.70;;
18042;SDS011;9146;48.074;11.968;2023-12-20T10:49:40;1.80;;;1.70;;
18042;SDS011;9146;48.074;11.968;2023-12-20T10:52:09;3.63;;;1.80;;
18042;SDS011;9146;48.074;11.968;2023-12-20T10:54:37;2.17;;;2.07;;
18042;SDS011;9146;48.074;11.968;2023-12-20T10:57:07;1.97;;;1.73;;
18042;SDS011;9146;48.074;11.968;2023-12-20T10:59:36;1.80;;;1.70;;
18042;SDS011;9146;48.074;11.968;2023-12-20T11:02:03;2.07;;;1.97;;
18042;SDS011;9146;48.074;11.968;2023-12-20T11:04:35;3.40;;;2.00;;
18042;SDS011;9146;48.074;11.968;2023-12-20T11:07:10;3.80;;;2.37;;
18042;SDS011;9146;48.074;11.968;2023-12-20T11:09:47;2.30;;;2.07;;
18042;SDS011;9146;48.074;11.968;2023-12-20T11:12:28;2.70;;;2.07;;
18042;SDS011;9146;48.074;11.968;2023-12-20T11:15:01;2.20;;;2.00;;
18042;SDS011;9146;48.074;11.968;2023-12-20T11:17:29;2.97;;;2.77;;
18042;SDS011;9146;48.074;11.968;2023-12-20T11:20:05;2.20;;;2.10;;
18042;SDS011;9146;48.074;11.968;2023-12-20T11:22:39;1.70;;;1.60;;
18042;SDS011;9146;48.074;11.968;2023-12-20T11:25:17;2.17;;;2.07;;
18042;SDS011;9146;48.074;11.968;2023-12-20T11:28:06;2.40;;;2.20;;
18042;SDS011;9146;48.074;11.968;2023-12-20T11:30:40;2.20;;;2.00;;
18042;SDS011;9146;48.074;11.968;2023-12-20T11:33:08;1.87;;;1.77;;
18042;SDS011;9146;48.074;11.968;2023-12-20T11:35:35;2.30;;;2.10;;
18042;SDS011;9146;48.074;11.968;2023-12-20T11:38:04;1.83;;;1.73;;
18042;SDS011;9146;48.074;11.968;2023-12-20T11:40:33;1.90;;;1.80;;
18042;SDS011;9146;48.074;11.968;2023-12-20T11:43:03;2.93;;;2.30;;
18042;SDS011;9146;48.074;11.968;2023-12-20T11:45:31;2.77;;;2.50;;
18042;SDS011;9146;48.074;11.968;2023-12-20T11:47:57;3.03;;;2.30;;
18042;SDS011;9146;48.074;11.968;2023-12-20T11:50:24;2.57;;;2.37;;
18042;SDS011;9146;48.074;11.968;2023-12-20T11:52:51;3.37;;;2.43;;
18042;SDS011;9146;48.074;11.968;2023-12-20T11:55:20;3.33;;;3.03;;
18042;SDS011;9146;48.074;11.968;2023-12-20T11:57:47;4.30;;;2.80;;
18042;SDS011;9146;48.074;11.968;2023-12-20T12:00:16;3.07;;;2.77;;
18042;SDS011;9146;48.074;11.968;2023-12-20T12:02:54;3.93;;;3.63;;
18042;SDS011;9146;48.074;11.968;2023-12-20T12:05:23;3.23;;;2.93;;
18042;SDS011;9146;48.074;11.968;2023-12-20T12:07:51;3.60;;;3.30;;
18042;SDS011;9146;48.074;11.968;2023-12-20T12:10:18;2.97;;;2.73;;
18042;SDS011;9146;48.074;11.968;2023-12-20T12:12:45;3.10;;;2.80;;
18042;SDS011;9146;48.074;11.968;2023-12-20T12:15:12;3.10;;;2.90;;
18042;SDS011;9146;48.074;11.968;2023-12-20T12:17:42;2.87;;;2.67;;
18042;SDS011;9146;48.074;11.968;2023-12-20T12:20:09;2.63;;;2.53;;
18042;SDS011;9146;48.074;11.968;2023-12-20T12:22:36;2.80;;;2.60;;
18042;SDS011;9146;48.074;11.968;2023-12-20T12:25:10;2.93;;;2.73;;
18042;SDS011;9146;48.074;11.968;2023-12-20T12:27:39;6.77;;;3.03;;
18042;SDS011;9146;48.074;11.968;2023-12-20T12:30:07;3.67;;;3.03;;
18042;SDS011;9146;48.074;11.968;2023-12-20T12:32:38;2.30;;;2.20;;
18042;SDS011;9146;48.074;11.968;2023-12-20T12:35:08;2.83;;;2.63;;
18042;SDS011;9146;48.074;11.968;2023-12-20T12:37:36;2.67;;;2.47;;
18042;SDS011;9146;48.074;11.968;2023-12-20T12:40:05;3.30;;;2.93;;
18042;SDS011;9146;48.074;11.968;2023-12-20T12:42:32;11.83;;;2.77;;
18042;SDS011;9146;48.074;11.968;2023-12-20T12:44:59;2.20;;;2.07;;
18042;SDS011;9146;48.074;11.968;2023-12-20T12:47:26;2.37;;;2.20;;
18042;SDS011;9146;48.074;11.968;2023-12-20T12:49:53;2.40;;;2.20;;
18042;SDS011;9146;48.074;11.968;2023-12-20T12:52:22;2.30;;;2.10;;
18042;SDS011;9146;48.074;11.968;2023-12-20T12:54:49;5.87;;;2.10;;
18042;SDS011;9146;48.074;11.968;2023-12-20T12:57:16;3.80;;;1.93;;
18042;SDS011;9146;48.074;11.968;2023-12-20T12:59:43;1.60;;;1.50;;
18042;SDS011;9146;48.074;11.968;2023-12-20T13:02:11;1.63;;;1.53;;
18042;SDS011;9146;48.074;11.968;2023-12-20T13:04:38;1.90;;;1.80;;
18042;SDS011;9146;48.074;11.968;2023-12-20T13:07:05;1.77;;;1.67;;
18042;SDS011;9146;48.074;11.968;2023-12-20T13:09:33;3.00;;;2.80;;
18042;SDS011;9146;48.074;11.968;2023-12-20T13:12:00;1.60;;;1.50;;
18042;SDS011;9146;48.074;11.968;2023-12-20T13:14:30;1.83;;;1.73;;
18042;SDS011;9146;48.074;11.968;2023-12-20T13:16:58;1.50;;;1.40;;
18042;SDS011;9146;48.074;11.968;2023-12-20T13:19:25;1.80;;;1.70;;
18042;SDS011;9146;48.074;11.968;2023-12-20T13:21:52;1.87;;;1.77;;
18042;SDS011;9146;48.074;11.968;2023-12-20T13:24:19;1.93;;;1.83;;
18042;SDS011;9146;48.074;11.968;2023-12-20T13:26:48;1.37;;;1.37;;
18042;SDS011;9146;48.074;11.968;2023-12-20T13:29:15;1.60;;;1.50;;
18042;SDS011;9146;48.074;11.968;2023-12-20T13:31:42;1.77;;;1.67;;
18042;SDS011;9146;48.074;11.968;2023-12-20T13:34:09;1.67;;;1.60;;
18042;SDS011;9146;48.074;11.968;2023-12-20T13:36:36;1.73;;;1.63;;
18042;SDS011;9146;48.074;11.968;2023-12-20T13:39:04;2.03;;;1.93;;
18042;SDS011;9146;48.074;11.968;2023-12-20T13:41:32;1.90;;;1.80;;
18042;SDS011;9146;48.074;11.968;2023-12-20T13:44:00;2.20;;;2.10;;
18042;SDS011;9146;48.074;11.968;2023-12-20T13:46:28;2.13;;;2.00;;
18042;SDS011;9146;48.074;11.968;2023-12-20T13:48:55;2.93;;;2.73;;
18042;SDS011;9146;48.074;11.968;2023-12-20T13:51:22;2.70;;;2.50;;
18042;SDS011;9146;48.074;11.968;2023-12-20T13:53:49;2.83;;;2.63;;
18042;SDS011;9146;48.074;11.968;2023-12-20T13:56:16;3.30;;;3.00;;
18042;SDS011;9146;48.074;11.968;2023-12-20T13:58:45;4.07;;;3.23;;
18042;SDS011;9146;48.074;11.968;2023-12-20T14:01:14;3.40;;;3.10;;
18042;SDS011;9146;48.074;11.968;2023-12-20T14:03:41;4.23;;;3.53;;
18042;SDS011;9146;48.074;11.968;2023-12-20T14:06:07;4.43;;;3.90;;
18042;SDS011;9146;48.074;11.968;2023-12-20T14:08:34;3.97;;;3.67;;
18042;SDS011;9146;48.074;11.968;2023-12-20T14:11:02;3.93;;;3.63;;
18042;SDS011;9146;48.074;11.968;2023-12-20T14:13:29;4.00;;;3.60;;
18042;SDS011;9146;48.074;11.968;2023-12-20T14:15:56;5.97;;;3.90;;
18042;SDS011;9146;48.074;11.968;2023-12-20T14:18:26;3.20;;;3.00;;
18042;SDS011;9146;48.074;11.968;2023-12-20T14:20:55;5.23;;;3.57;;
18042;SDS011;9146;48.074;11.968;2023-12-20T14:23:22;4.80;;;4.40;;
18042;SDS011;9146;48.074;11.968;2023-12-20T14:25:49;6.70;;;4.00;;
18042;SDS011;9146;48.074;11.968;2023-12-20T14:28:16;4.60;;;4.20;;
18042;SDS011;9146;48.074;11.968;2023-12-20T14:30:43;4.77;;;4.10;;
18042;SDS011;9146;48.074;11.968;2023-12-20T14:33:10;5.63;;;3.80;;
18042;SDS011;9146;48.074;11.968;2023-12-20T14:35:38;5.10;;;4.00;;
18042;SDS011;9146;48.074;11.968;2023-12-20T14:38:07;6.03;;;4.20;;
18042;SDS011;9146;48.074;11.968;2023-12-20T14:40:34;4.87;;;4.00;;
18042;SDS011;9146;48.074;11.968;2023-12-20T14:43:01;7.70;;;5.23;;
18042;SDS011;9146;48.074;11.968;2023-12-20T14:45:29;6.00;;;4.13;;
18042;SDS011;9146;48.074;11.968;2023-12-20T14:47:56;9.50;;;6.40;;
18042;SDS011;9146;48.074;11.968;2023-12-20T14:50:23;11.43;;;4.97;;